createdAt,value
2022-08-17T00:00:54.122Z,35.13
2022-08-17T00:01:54.195Z,33.03
2022-08-17T00:02:54.113Z,32.07
2022-08-17T00:03:54.105Z,32.55
2022-08-17T00:04:54.114Z,31.42
2022-08-17T00:05:54.087Z,39.80
2022-08-17T00:06:54.109Z,41.25
2022-08-17T00:07:54.070Z,35.13
2022-08-17T00:08:54.060Z,34.00
2022-08-17T00:09:54.053Z,36.58
2022-08-17T00:10:54.045Z,34.64
2022-08-17T00:12:41.774Z,32.23
2022-08-17T00:12:55.339Z,33.03
2022-08-17T00:13:55.910Z,33.84
2022-08-17T00:14:54.015Z,31.74
2022-08-17T00:15:54.023Z,31.26
2022-08-17T00:16:56.367Z,32.55
2022-08-17T00:17:53.987Z,35.61
2022-08-17T00:19:07.119Z,32.23
2022-08-17T00:19:54.975Z,32.07
2022-08-17T00:20:53.967Z,31.58
2022-08-17T00:22:10.643Z,33.35
2022-08-17T00:22:54.953Z,40.12
2022-08-17T00:23:53.973Z,35.61
2022-08-17T00:24:53.938Z,32.07
2022-08-17T00:25:53.953Z,37.06
2022-08-17T00:26:53.946Z,37.71
2022-08-17T00:27:53.918Z,38.99
2022-08-17T00:28:53.904Z,32.23
2022-08-17T00:29:53.892Z,32.39
2022-08-17T00:30:53.906Z,31.58
2022-08-17T00:31:53.905Z,31.74
2022-08-17T00:33:14.005Z,32.55
2022-08-17T00:33:54.860Z,32.23
2022-08-17T00:34:53.855Z,32.07
2022-08-17T00:35:53.846Z,41.73
2022-08-17T00:36:53.865Z,37.54
2022-08-17T00:37:53.831Z,36.42
2022-08-17T00:38:53.822Z,36.58
2022-08-17T00:39:53.842Z,37.38
2022-08-17T00:40:55.923Z,33.19
2022-08-17T00:41:54.826Z,34.48
2022-08-17T00:42:53.791Z,33.19
2022-08-17T00:43:53.787Z,33.03
2022-08-17T00:44:53.785Z,32.07
2022-08-17T00:45:53.765Z,30.78
2022-08-17T00:46:53.786Z,31.90
2022-08-17T00:47:53.752Z,32.23
2022-08-17T00:48:53.747Z,34.64
2022-08-17T00:49:53.731Z,37.06
2022-08-17T00:50:53.728Z,33.84
2022-08-17T00:51:53.747Z,34.48
2022-08-17T00:52:53.707Z,34.64
2022-08-17T00:53:53.711Z,34.48
2022-08-17T00:54:53.699Z,34.80
2022-08-17T00:55:53.725Z,35.13
2022-08-17T00:56:53.714Z,35.61
2022-08-17T00:57:55.576Z,35.13
2022-08-17T00:58:54.717Z,32.55
2022-08-17T01:00:01.997Z,31.42
2022-08-17T01:00:54.772Z,33.68
2022-08-17T01:01:53.715Z,35.13
2022-08-17T01:02:53.863Z,36.74
2022-08-17T01:03:53.631Z,35.61
2022-08-17T01:04:53.633Z,37.54
2022-08-17T01:05:53.615Z,39.16
2022-08-17T01:06:53.643Z,36.25
2022-08-17T01:07:53.635Z,36.42
2022-08-17T01:08:57.656Z,36.25
2022-08-17T01:09:53.588Z,39.32
2022-08-17T01:11:00.381Z,33.68
2022-08-17T01:11:54.598Z,32.87
2022-08-17T01:12:53.565Z,33.35
2022-08-17T01:13:53.557Z,33.35
2022-08-17T01:14:53.538Z,33.35
2022-08-17T01:15:54.546Z,33.35
2022-08-17T01:16:53.552Z,38.83
2022-08-17T01:17:54.524Z,35.13
2022-08-17T01:18:53.516Z,38.67
2022-08-17T01:19:53.510Z,36.90
2022-08-17T01:20:53.510Z,36.74
2022-08-17T01:21:53.527Z,34.64
2022-08-17T01:22:53.492Z,32.71
2022-08-17T01:23:53.476Z,35.61
2022-08-17T01:24:53.471Z,34.97
2022-08-17T01:25:53.490Z,35.13
2022-08-17T01:26:53.485Z,31.42
2022-08-17T01:27:53.444Z,31.58
2022-08-17T01:28:54.491Z,31.90
2022-08-17T01:29:54.434Z,34.97
2022-08-17T01:30:57.420Z,32.87
2022-08-17T01:31:54.445Z,44.63
2022-08-17T01:32:53.413Z,36.90
2022-08-17T01:33:53.408Z,36.74
2022-08-17T01:34:53.389Z,32.55
2022-08-17T01:35:53.384Z,34.32
2022-08-17T01:36:53.398Z,35.61
2022-08-17T01:37:53.366Z,37.87
2022-08-17T01:38:53.357Z,36.58
2022-08-17T01:39:53.374Z,33.35
2022-08-17T01:40:57.652Z,32.07
2022-08-17T01:41:53.354Z,34.32
2022-08-17T01:43:26.211Z,34.48
2022-08-17T01:43:53.322Z,37.38
2022-08-17T01:44:53.306Z,34.97
2022-08-17T01:46:03.247Z,32.55
2022-08-17T01:46:54.318Z,32.55
2022-08-17T01:47:53.284Z,33.68
2022-08-17T01:48:53.303Z,32.23
2022-08-17T01:49:53.274Z,34.97
2022-08-17T01:50:53.261Z,34.00
2022-08-17T01:51:53.285Z,37.87
2022-08-17T01:52:53.245Z,34.80
2022-08-17T01:53:53.226Z,36.09
2022-08-17T01:54:54.235Z,33.68
2022-08-17T01:55:53.226Z,34.48
2022-08-17T01:56:53.247Z,33.68
2022-08-17T01:57:54.211Z,38.99
2022-08-17T01:58:53.237Z,34.80
2022-08-17T01:59:53.191Z,35.13
2022-08-17T02:01:00.532Z,36.74
2022-08-17T02:01:54.259Z,33.68
2022-08-17T02:02:53.175Z,34.80
2022-08-17T02:03:59.584Z,35.93
2022-08-17T02:04:54.161Z,41.57
2022-08-17T02:05:53.153Z,36.42
2022-08-17T02:06:54.611Z,35.93
2022-08-17T02:08:00.448Z,35.13
2022-08-17T02:09:01.639Z,34.80
2022-08-17T02:09:55.123Z,34.00
2022-08-17T02:10:53.133Z,34.64
2022-08-17T02:11:53.101Z,35.29
2022-08-17T02:12:53.271Z,35.93
2022-08-17T02:13:57.823Z,41.57
2022-08-17T02:14:54.075Z,34.16
2022-08-17T02:15:53.072Z,34.32
2022-08-17T02:16:53.079Z,33.84
2022-08-17T02:17:54.730Z,34.97
2022-08-17T02:18:53.058Z,32.07
2022-08-17T02:19:53.039Z,32.07
2022-08-17T02:20:53.033Z,35.77
2022-08-17T02:21:53.028Z,34.97
2022-08-17T02:22:53.058Z,35.13
2022-08-17T02:23:53.011Z,35.45
2022-08-17T02:24:59.568Z,36.74
2022-08-17T02:25:53.999Z,36.90
2022-08-17T02:26:52.997Z,37.54
2022-08-17T02:27:53.011Z,40.61
2022-08-17T02:28:52.978Z,37.38
2022-08-17T02:29:53.037Z,38.99
2022-08-17T02:31:01.434Z,37.38
2022-08-17T02:31:53.955Z,33.03
2022-08-17T02:32:52.969Z,37.22
2022-08-17T02:34:00.260Z,37.87
2022-08-17T02:34:53.933Z,39.32
2022-08-17T02:35:52.921Z,34.64
2022-08-17T02:36:52.919Z,34.80
2022-08-17T02:37:55.448Z,34.64
2022-08-17T02:38:52.949Z,33.84
2022-08-17T02:39:53.000Z,36.74
2022-08-17T02:40:52.880Z,34.97
2022-08-17T02:41:52.880Z,34.00
2022-08-17T02:42:52.894Z,33.68
2022-08-17T02:43:52.866Z,35.61
2022-08-17T02:44:52.856Z,33.03
2022-08-17T02:45:52.850Z,31.42
2022-08-17T02:46:52.835Z,31.90
2022-08-17T02:47:52.857Z,34.48
2022-08-17T02:48:52.829Z,34.97
2022-08-17T02:49:55.403Z,34.64
2022-08-17T02:50:52.812Z,33.35
2022-08-17T02:51:52.807Z,37.38
2022-08-17T02:53:01.536Z,38.51
2022-08-17T02:54:02.094Z,36.42
2022-08-17T02:54:53.786Z,36.25
2022-08-17T02:55:52.802Z,44.31
2022-08-17T02:56:52.783Z,37.22
2022-08-17T02:57:52.776Z,38.83
2022-08-17T02:58:52.745Z,36.25
2022-08-17T02:59:52.743Z,34.80
2022-08-17T03:00:52.734Z,34.48
2022-08-17T03:01:52.772Z,36.09
2022-08-17T03:02:52.849Z,35.13
2022-08-17T03:03:52.719Z,40.28
2022-08-17T03:04:52.696Z,43.83
2022-08-17T03:05:52.687Z,44.31
2022-08-17T03:06:52.680Z,38.67
2022-08-17T03:07:52.715Z,36.90
2022-08-17T03:08:52.663Z,42.38
2022-08-17T03:09:52.657Z,37.54
2022-08-17T03:10:52.660Z,40.77
2022-08-17T03:11:55.861Z,35.29
2022-08-17T03:12:52.679Z,36.25
2022-08-17T03:13:52.617Z,47.37
2022-08-17T03:14:52.613Z,44.63
2022-08-17T03:15:52.610Z,38.67
2022-08-17T03:16:52.599Z,38.83
2022-08-17T03:17:52.618Z,49.63
2022-08-17T03:18:52.608Z,39.80
2022-08-17T03:19:52.582Z,42.70
2022-08-17T03:20:52.571Z,39.32
2022-08-17T03:21:55.140Z,39.64
2022-08-17T03:22:53.248Z,38.35
2022-08-17T03:23:54.345Z,39.48
2022-08-17T03:24:52.557Z,46.73
2022-08-17T03:25:53.038Z,40.61
2022-08-17T03:26:52.544Z,48.82
2022-08-17T03:27:52.552Z,41.89
2022-08-17T03:28:52.532Z,39.48
2022-08-17T03:29:52.506Z,45.12
2022-08-17T03:30:52.499Z,46.41
2022-08-17T03:31:52.498Z,43.51
2022-08-17T03:32:52.828Z,47.37
2022-08-17T03:33:52.497Z,44.79
2022-08-17T03:34:52.468Z,51.24
2022-08-17T03:35:52.456Z,42.06
2022-08-17T03:36:52.453Z,45.92
2022-08-17T03:38:00.100Z,49.63
2022-08-17T03:38:53.457Z,43.02
2022-08-17T03:39:52.491Z,44.63
2022-08-17T03:40:56.673Z,40.61
2022-08-17T03:41:53.417Z,41.41
2022-08-17T03:42:52.426Z,41.73
2022-08-17T03:43:52.401Z,49.31
2022-08-17T03:44:52.382Z,37.71
2022-08-17T03:45:52.369Z,43.83
2022-08-17T03:46:52.365Z,46.89
2022-08-17T03:47:52.389Z,50.60
2022-08-17T03:48:52.352Z,39.96
2022-08-17T03:49:52.342Z,39.64
2022-08-17T03:50:52.332Z,37.87
2022-08-17T03:51:52.327Z,42.86
2022-08-17T03:52:52.357Z,40.12
2022-08-17T03:53:52.312Z,43.02
2022-08-17T03:54:52.307Z,40.28
2022-08-17T03:55:52.296Z,40.12
2022-08-17T03:56:52.290Z,45.60
2022-08-17T03:57:52.306Z,47.21
2022-08-17T03:58:52.269Z,43.34
2022-08-17T03:59:52.265Z,44.63
2022-08-17T04:00:52.256Z,43.51
2022-08-17T04:01:52.312Z,39.96
2022-08-17T04:02:52.333Z,38.83
2022-08-17T04:03:52.236Z,50.11
2022-08-17T04:04:52.363Z,43.02
2022-08-17T04:05:52.232Z,45.76
2022-08-17T04:06:52.207Z,39.80
2022-08-17T04:07:52.228Z,43.99
2022-08-17T04:08:52.195Z,51.24
2022-08-17T04:09:52.187Z,45.60
2022-08-17T04:10:52.176Z,40.12
2022-08-17T04:11:52.185Z,46.41
2022-08-17T04:12:52.502Z,41.09
2022-08-17T04:13:52.153Z,49.47
2022-08-17T04:14:54.726Z,43.99
2022-08-17T04:15:52.134Z,50.43
2022-08-17T04:16:52.129Z,53.01
2022-08-17T04:17:52.147Z,49.63
2022-08-17T04:18:52.113Z,45.28
2022-08-17T04:19:53.139Z,48.02
2022-08-17T04:20:52.096Z,49.79
2022-08-17T04:21:52.093Z,46.57
2022-08-17T04:22:52.169Z,43.18
2022-08-17T04:23:52.097Z,49.47
2022-08-17T04:24:52.072Z,51.24
2022-08-17T04:25:52.060Z,43.51
2022-08-17T04:26:54.426Z,43.99
2022-08-17T04:27:52.067Z,48.34
2022-08-17T04:28:52.048Z,53.33
2022-08-17T04:29:54.995Z,48.34
2022-08-17T04:30:52.021Z,53.82
2022-08-17T04:31:52.018Z,51.56
2022-08-17T04:33:10.933Z,53.98
2022-08-17T04:33:52.994Z,44.96
2022-08-17T04:34:51.995Z,42.54
2022-08-17T04:35:52.004Z,46.25
2022-08-17T04:36:51.980Z,51.24
2022-08-17T04:37:51.997Z,47.70
2022-08-17T04:38:51.963Z,52.53
2022-08-17T04:39:51.999Z,42.06
2022-08-17T04:40:51.944Z,51.24
2022-08-17T04:41:51.940Z,48.02
2022-08-17T04:42:52.129Z,48.82
2022-08-17T04:43:53.922Z,40.93
2022-08-17T04:44:51.943Z,43.99
2022-08-17T04:45:55.765Z,46.41
2022-08-17T04:46:51.941Z,55.43
2022-08-17T04:47:51.919Z,45.12
2022-08-17T04:48:51.893Z,43.34
2022-08-17T04:49:51.881Z,46.73
2022-08-17T04:50:51.871Z,50.27
2022-08-17T04:51:55.838Z,53.01
2022-08-17T04:52:52.880Z,50.11
2022-08-17T04:53:54.472Z,54.30
2022-08-17T04:54:51.838Z,51.56
2022-08-17T04:55:51.837Z,49.79
2022-08-17T04:56:51.828Z,46.73
2022-08-17T04:57:51.844Z,46.08
2022-08-17T04:58:51.814Z,45.60
2022-08-17T04:59:51.804Z,48.66
2022-08-17T05:00:51.800Z,53.50
2022-08-17T05:01:51.786Z,46.57
2022-08-17T05:02:52.271Z,48.82
2022-08-17T05:03:51.773Z,47.21
2022-08-17T05:04:51.757Z,47.70
2022-08-17T05:05:51.748Z,43.83
2022-08-17T05:06:51.749Z,46.25
2022-08-17T05:07:51.729Z,45.92
2022-08-17T05:08:51.772Z,49.79
2022-08-17T05:09:51.719Z,43.83
2022-08-17T05:10:51.709Z,47.05
2022-08-17T05:11:51.779Z,41.41
2022-08-17T05:12:51.848Z,46.57
2022-08-17T05:13:51.732Z,42.86
2022-08-17T05:14:51.677Z,50.92
2022-08-17T05:15:51.675Z,51.24
2022-08-17T05:16:51.672Z,42.22
2022-08-17T05:17:51.651Z,44.31
2022-08-17T05:18:51.675Z,49.47
2022-08-17T05:19:52.185Z,46.08
2022-08-17T05:20:52.708Z,46.41
2022-08-17T05:21:51.625Z,47.21
2022-08-17T05:22:51.795Z,46.08
2022-08-17T05:23:56.229Z,47.05
2022-08-17T05:24:53.743Z,44.63
2022-08-17T05:25:51.601Z,40.28
2022-08-17T05:26:51.608Z,45.12
2022-08-17T05:27:51.600Z,47.05
2022-08-17T05:28:51.598Z,43.02
2022-08-17T05:29:51.569Z,44.63
2022-08-17T05:30:51.561Z,51.72
2022-08-17T05:31:51.554Z,45.92
2022-08-17T05:32:51.706Z,44.79
2022-08-17T05:33:51.544Z,47.53
2022-08-17T05:34:51.530Z,52.69
2022-08-17T05:35:51.517Z,42.06
2022-08-17T05:36:51.551Z,45.60
2022-08-17T05:37:51.530Z,47.05
2022-08-17T05:38:51.513Z,52.05
2022-08-17T05:39:51.542Z,42.22
2022-08-17T05:40:51.488Z,50.76
2022-08-17T05:41:51.474Z,39.16
2022-08-17T05:42:51.616Z,51.88
2022-08-17T05:43:56.073Z,52.21
2022-08-17T05:44:53.460Z,51.72
2022-08-17T05:45:54.841Z,48.34
2022-08-17T05:46:51.465Z,51.40
2022-08-17T05:47:51.480Z,47.86
2022-08-17T05:48:51.429Z,50.76
2022-08-17T05:49:51.408Z,41.73
2022-08-17T05:50:51.405Z,46.08
2022-08-17T05:51:51.413Z,46.41
2022-08-17T05:52:51.570Z,47.37
2022-08-17T05:53:51.379Z,48.02
2022-08-17T05:54:51.377Z,44.47
2022-08-17T05:55:51.365Z,42.06
2022-08-17T05:56:51.361Z,51.08
2022-08-17T05:57:53.396Z,49.31
2022-08-17T05:58:51.356Z,47.21
2022-08-17T05:59:51.332Z,41.57
2022-08-17T06:00:51.433Z,49.63
2022-08-17T06:01:51.320Z,43.99
2022-08-17T06:02:51.554Z,43.99
2022-08-17T06:03:51.329Z,47.70
2022-08-17T06:04:51.293Z,46.57
2022-08-17T06:05:51.287Z,44.96
2022-08-17T06:06:51.296Z,44.63
2022-08-17T06:07:51.296Z,50.27
2022-08-17T06:08:51.575Z,45.92
2022-08-17T06:09:51.256Z,46.57
2022-08-17T06:10:51.255Z,47.37
2022-08-17T06:11:53.702Z,43.34
2022-08-17T06:12:51.502Z,47.37
2022-08-17T06:13:51.254Z,41.09
2022-08-17T06:14:51.220Z,46.73
2022-08-17T06:15:51.206Z,47.53
2022-08-17T06:16:51.223Z,41.09
2022-08-17T06:17:51.193Z,42.38
2022-08-17T06:18:51.221Z,43.02
2022-08-17T06:19:51.180Z,44.47
2022-08-17T06:20:51.175Z,40.93
2022-08-17T06:21:51.171Z,48.98
2022-08-17T06:22:51.386Z,46.41
2022-08-17T06:23:51.185Z,40.77
2022-08-17T06:24:51.145Z,45.60
2022-08-17T06:25:51.137Z,42.54
2022-08-17T06:26:51.125Z,42.86
2022-08-17T06:27:53.657Z,42.54
2022-08-17T06:28:51.155Z,50.92
2022-08-17T06:29:51.107Z,40.12
2022-08-17T06:30:59.560Z,37.54
2022-08-17T06:31:52.092Z,38.19
2022-08-17T06:32:51.350Z,45.60
2022-08-17T06:33:51.128Z,48.34
2022-08-17T06:34:51.071Z,44.15
2022-08-17T06:35:51.062Z,38.67
2022-08-17T06:36:51.047Z,42.54
2022-08-17T06:37:51.072Z,38.83
2022-08-17T06:38:51.064Z,38.19
2022-08-17T06:39:51.107Z,47.05
2022-08-17T06:40:51.019Z,41.73
2022-08-17T06:41:51.018Z,50.11
2022-08-17T06:43:02.886Z,46.08
2022-08-17T06:43:52.047Z,42.06
2022-08-17T06:44:51.593Z,49.31
2022-08-17T06:45:50.985Z,45.12
2022-08-17T06:46:50.978Z,43.51
2022-08-17T06:47:50.969Z,48.66
2022-08-17T06:48:50.985Z,41.89
2022-08-17T06:49:55.243Z,51.24
2022-08-17T06:50:51.945Z,49.79
2022-08-17T06:51:50.946Z,48.82
2022-08-17T06:52:50.931Z,43.83
2022-08-17T06:53:50.963Z,47.37
2022-08-17T06:54:50.917Z,37.87
2022-08-17T06:55:50.925Z,41.57
2022-08-17T06:56:52.700Z,47.37
2022-08-17T06:57:50.912Z,45.28
2022-08-17T06:58:50.916Z,47.70
2022-08-17T06:59:55.876Z,39.96
2022-08-17T07:00:55.387Z,48.34
2022-08-17T07:01:51.875Z,41.41
2022-08-17T07:02:52.631Z,48.02
2022-08-17T07:03:50.877Z,45.76
2022-08-17T07:04:50.839Z,49.63
2022-08-17T07:05:50.821Z,41.89
2022-08-17T07:06:51.822Z,41.73
2022-08-17T07:07:50.815Z,51.56
2022-08-17T07:08:50.840Z,51.40
2022-08-17T07:09:50.808Z,41.09
2022-08-17T07:10:50.794Z,44.15
2022-08-17T07:11:50.790Z,47.70
2022-08-17T07:12:51.025Z,42.38
2022-08-17T07:13:51.613Z,46.41
2022-08-17T07:14:50.762Z,50.27
2022-08-17T07:15:54.005Z,43.83
2022-08-17T07:16:52.758Z,44.79
2022-08-17T07:17:50.743Z,40.28
2022-08-17T07:18:50.761Z,48.66
2022-08-17T07:19:50.726Z,44.63
2022-08-17T07:20:50.717Z,49.31
2022-08-17T07:21:50.737Z,44.15
2022-08-17T07:22:59.260Z,52.21
2022-08-17T07:23:51.733Z,47.86
2022-08-17T07:24:50.684Z,42.54
2022-08-17T07:25:50.677Z,48.34
2022-08-17T07:26:50.683Z,46.73
2022-08-17T07:27:50.741Z,46.73
2022-08-17T07:28:50.685Z,50.76
2022-08-17T07:29:50.650Z,42.06
2022-08-17T07:30:50.640Z,50.27
2022-08-17T07:31:50.680Z,48.98
2022-08-17T07:32:50.627Z,40.12
2022-08-17T07:33:50.641Z,47.70
2022-08-17T07:34:50.639Z,47.53
2022-08-17T07:35:50.605Z,43.18
2022-08-17T07:36:50.597Z,46.57
2022-08-17T07:37:50.805Z,46.25
2022-08-17T07:38:50.580Z,44.47
2022-08-17T07:40:15.609Z,47.53
2022-08-17T07:40:51.565Z,45.92
2022-08-17T07:41:57.504Z,46.57
2022-08-17T07:43:23.307Z,45.12
2022-08-17T07:43:50.546Z,46.08
2022-08-17T07:44:50.549Z,49.15
2022-08-17T07:45:50.521Z,48.66
2022-08-17T07:46:50.517Z,44.63
2022-08-17T07:47:50.693Z,44.15
2022-08-17T07:48:51.267Z,44.63
2022-08-17T07:49:50.523Z,44.63
2022-08-17T07:50:50.707Z,48.50
2022-08-17T07:51:50.544Z,44.63
2022-08-17T07:52:52.493Z,50.27
2022-08-17T07:53:50.469Z,47.37
2022-08-17T07:54:50.478Z,46.08
2022-08-17T07:55:50.445Z,46.57
2022-08-17T07:56:50.436Z,46.08
2022-08-17T07:57:50.545Z,43.83
2022-08-17T07:58:50.424Z,43.67
2022-08-17T07:59:50.445Z,45.76
2022-08-17T08:00:50.415Z,44.31
2022-08-17T08:01:55.510Z,45.12
2022-08-17T08:02:51.394Z,46.57
2022-08-17T08:03:52.596Z,40.28
2022-08-17T08:05:00.546Z,39.96
2022-08-17T08:05:52.379Z,43.34
2022-08-17T08:06:50.365Z,47.70
2022-08-17T08:07:50.688Z,42.86
2022-08-17T08:08:50.359Z,46.73
2022-08-17T08:09:50.379Z,39.80
2022-08-17T08:10:50.340Z,51.72
2022-08-17T08:11:50.334Z,46.57
2022-08-17T08:12:53.706Z,43.67
2022-08-17T08:13:50.313Z,46.41
2022-08-17T08:14:50.341Z,45.28
2022-08-17T08:15:53.682Z,50.60
2022-08-17T08:16:50.293Z,50.27
2022-08-17T08:17:50.505Z,37.54
2022-08-17T08:18:56.085Z,51.08
2022-08-17T08:19:51.299Z,40.93
2022-08-17T08:20:53.420Z,47.05
2022-08-17T08:21:50.267Z,43.02
2022-08-17T08:22:50.253Z,50.76
2022-08-17T08:23:50.243Z,45.60
2022-08-17T08:24:50.275Z,46.41
2022-08-17T08:25:53.483Z,40.28
2022-08-17T08:26:51.223Z,40.61
2022-08-17T08:27:50.521Z,45.92
2022-08-17T08:28:50.199Z,45.92
2022-08-17T08:29:50.220Z,39.32
2022-08-17T08:30:50.193Z,35.29
2022-08-17T08:31:50.183Z,34.16
2022-08-17T08:32:50.518Z,33.84
2022-08-17T08:33:50.167Z,45.60
2022-08-17T08:35:01.965Z,49.15
2022-08-17T08:35:51.179Z,42.38
2022-08-17T08:37:02.030Z,47.21
2022-08-17T08:37:51.174Z,45.60
2022-08-17T08:38:50.136Z,51.56
2022-08-17T08:39:50.205Z,43.02
2022-08-17T08:40:50.137Z,48.02
2022-08-17T08:41:50.296Z,46.25
2022-08-17T08:42:50.179Z,49.15
2022-08-17T08:43:53.056Z,34.97
2022-08-17T08:45:00.030Z,35.93
2022-08-17T08:45:51.100Z,46.57
2022-08-17T08:46:50.081Z,39.64
2022-08-17T08:47:50.213Z,44.79
2022-08-17T08:48:56.014Z,47.86
2022-08-17T08:50:06.117Z,49.63
2022-08-17T08:50:52.055Z,39.48
2022-08-17T08:51:50.639Z,44.47
2022-08-17T08:52:50.023Z,48.02
2022-08-17T08:53:50.014Z,41.57
2022-08-17T08:54:50.019Z,47.70
2022-08-17T08:55:50.027Z,42.86
2022-08-17T08:57:21.889Z,43.99
2022-08-17T08:57:52.094Z,43.99
2022-08-17T08:58:49.988Z,43.51
2022-08-17T08:59:57.881Z,41.25
2022-08-17T09:00:50.989Z,38.99
2022-08-17T09:01:49.987Z,39.64
2022-08-17T09:02:49.948Z,46.89
2022-08-17T09:03:53.070Z,41.73
2022-08-17T09:05:13.537Z,45.44
2022-08-17T09:05:51.947Z,40.77
2022-08-17T09:06:49.908Z,47.70
2022-08-17T09:07:50.078Z,43.83
2022-08-17T09:08:49.906Z,41.57
2022-08-17T09:09:49.897Z,36.58
2022-08-17T09:10:49.907Z,35.45
2022-08-17T09:12:02.081Z,37.38
2022-08-17T09:12:50.865Z,42.70
2022-08-17T09:13:54.664Z,42.22
2022-08-17T09:14:50.848Z,41.09
2022-08-17T09:15:49.865Z,43.67
2022-08-17T09:16:49.842Z,40.44
2022-08-17T09:17:55.733Z,47.37
2022-08-17T09:19:03.411Z,41.25
2022-08-17T09:19:50.822Z,46.25
2022-08-17T09:20:50.446Z,41.09
2022-08-17T09:21:50.797Z,44.63
2022-08-17T09:22:49.797Z,48.66
2022-08-17T09:23:49.783Z,40.77
2022-08-17T09:24:49.776Z,39.96
2022-08-17T09:25:49.817Z,41.57
2022-08-17T09:26:49.770Z,45.28
2022-08-17T09:27:50.011Z,43.02
2022-08-17T09:28:49.750Z,45.60
2022-08-17T09:29:49.785Z,41.89
2022-08-17T09:30:49.737Z,43.18
2022-08-17T09:31:49.759Z,46.08
2022-08-17T09:32:49.725Z,42.86
2022-08-17T09:33:49.710Z,45.28
2022-08-17T09:34:49.730Z,43.02
2022-08-17T09:35:49.710Z,43.99
2022-08-17T09:36:49.690Z,46.08
2022-08-17T09:37:49.895Z,48.02
2022-08-17T09:38:49.673Z,41.25
2022-08-17T09:39:49.766Z,39.32
2022-08-17T09:40:49.677Z,33.68
2022-08-17T09:41:49.656Z,49.15
2022-08-17T09:42:49.654Z,44.79
2022-08-17T09:43:49.649Z,35.29
2022-08-17T09:44:49.650Z,48.50
2022-08-17T09:45:49.661Z,45.44
2022-08-17T09:46:49.621Z,46.41
2022-08-17T09:47:49.858Z,38.03
2022-08-17T09:48:49.596Z,46.73
2022-08-17T09:49:49.606Z,47.86
2022-08-17T09:51:05.454Z,46.57
2022-08-17T09:51:50.589Z,41.25
2022-08-17T09:52:49.569Z,46.73
2022-08-17T09:53:49.844Z,38.83
2022-08-17T09:54:50.566Z,42.54
2022-08-17T09:55:49.589Z,39.32
2022-08-17T09:57:00.858Z,48.82
2022-08-17T09:57:51.730Z,47.86
2022-08-17T09:58:49.535Z,39.96
2022-08-17T09:59:49.521Z,45.92
2022-08-17T10:00:49.579Z,39.64
2022-08-17T10:01:49.513Z,42.54
2022-08-17T10:02:49.502Z,44.79
2022-08-17T10:03:49.509Z,44.31
2022-08-17T10:04:49.495Z,37.22
2022-08-17T10:05:49.498Z,40.77
2022-08-17T10:06:50.475Z,36.90
2022-08-17T10:07:49.605Z,46.08
2022-08-17T10:08:49.462Z,42.06
2022-08-17T10:09:49.453Z,40.61
2022-08-17T10:10:52.399Z,37.38
2022-08-17T10:11:50.622Z,47.05
2022-08-17T10:12:49.428Z,34.16
2022-08-17T10:13:52.880Z,40.61
2022-08-17T10:14:53.533Z,44.15
2022-08-17T10:15:50.431Z,45.28
2022-08-17T10:16:49.396Z,39.96
2022-08-17T10:17:49.482Z,38.51
2022-08-17T10:18:49.377Z,35.61
2022-08-17T10:19:49.394Z,46.08
2022-08-17T10:20:49.389Z,49.31
2022-08-17T10:21:49.356Z,40.61
2022-08-17T10:22:54.766Z,48.18
2022-08-17T10:23:50.408Z,37.22
2022-08-17T10:25:23.088Z,47.86
2022-08-17T10:25:55.009Z,37.87
2022-08-17T10:26:56.808Z,41.57
2022-08-17T10:27:50.606Z,43.67
2022-08-17T10:28:49.308Z,49.15
2022-08-17T10:29:49.927Z,41.73
2022-08-17T10:30:49.319Z,38.35
2022-08-17T10:31:49.299Z,39.48
2022-08-17T10:32:49.279Z,47.70
2022-08-17T10:33:49.283Z,44.15
2022-08-17T10:34:49.265Z,39.96
2022-08-17T10:35:49.308Z,41.89
2022-08-17T10:36:49.258Z,40.77
2022-08-17T10:37:49.340Z,38.35
2022-08-17T10:38:49.232Z,37.54
2022-08-17T10:39:51.982Z,45.60
2022-08-17T10:40:49.349Z,48.18
2022-08-17T10:41:49.218Z,45.28
2022-08-17T10:42:49.217Z,43.34
2022-08-17T10:44:37.346Z,40.93
2022-08-17T10:44:50.186Z,43.67
2022-08-17T10:45:49.213Z,36.58
2022-08-17T10:46:50.171Z,39.48
2022-08-17T10:47:55.360Z,44.63
2022-08-17T10:48:51.167Z,42.38
2022-08-17T10:49:49.233Z,38.19
2022-08-17T10:50:49.174Z,45.12
2022-08-17T10:51:49.339Z,40.44
2022-08-17T10:52:49.131Z,44.47
2022-08-17T10:53:49.116Z,46.73
2022-08-17T10:54:49.118Z,41.25
2022-08-17T10:55:49.100Z,41.57
2022-08-17T10:56:49.134Z,39.48
2022-08-17T10:57:49.225Z,40.28
2022-08-17T10:58:49.147Z,45.76
2022-08-17T10:59:49.079Z,40.77
2022-08-17T11:00:49.130Z,36.74
2022-08-17T11:01:49.220Z,41.73
2022-08-17T11:02:49.254Z,46.25
2022-08-17T11:03:49.039Z,36.74
2022-08-17T11:04:49.041Z,44.96
2022-08-17T11:05:49.036Z,40.61
2022-08-17T11:06:49.048Z,47.70
2022-08-17T11:07:49.025Z,42.54
2022-08-17T11:08:48.997Z,36.74
2022-08-17T11:09:48.991Z,41.25
2022-08-17T11:10:52.091Z,40.44
2022-08-17T11:11:50.080Z,36.58
2022-08-17T11:12:49.026Z,38.19
2022-08-17T11:13:48.974Z,43.67
2022-08-17T11:14:48.961Z,42.54
2022-08-17T11:15:48.949Z,48.66
2022-08-17T11:16:48.970Z,37.87
2022-08-17T11:17:48.956Z,42.86
2022-08-17T11:18:48.930Z,44.63
2022-08-17T11:19:48.926Z,45.60
2022-08-17T11:20:48.924Z,42.22
2022-08-17T11:21:49.044Z,35.45
2022-08-17T11:22:48.951Z,42.06
2022-08-17T11:23:48.896Z,48.50
2022-08-17T11:24:48.891Z,39.32
2022-08-17T11:25:48.876Z,34.00
2022-08-17T11:26:48.906Z,40.12
2022-08-17T11:27:48.862Z,39.80
2022-08-17T11:28:48.876Z,42.38
2022-08-17T11:29:52.625Z,39.64
2022-08-17T11:30:50.848Z,41.57
2022-08-17T11:31:48.863Z,48.02
2022-08-17T11:32:54.737Z,47.05
2022-08-17T11:33:49.822Z,46.08
2022-08-17T11:34:48.815Z,38.83
2022-08-17T11:35:48.819Z,45.12
2022-08-17T11:36:48.823Z,43.99
2022-08-17T11:37:48.793Z,44.96
2022-08-17T11:38:48.787Z,44.79
2022-08-17T11:39:48.868Z,39.80
2022-08-17T11:40:48.768Z,41.89
2022-08-17T11:41:48.801Z,43.67
2022-08-17T11:42:48.864Z,36.25
2022-08-17T11:43:48.749Z,37.54
2022-08-17T11:44:48.731Z,49.15
2022-08-17T11:45:48.727Z,39.32
2022-08-17T11:46:51.806Z,38.19
2022-08-17T11:48:09.095Z,48.66
2022-08-17T11:48:50.709Z,47.53
2022-08-17T11:49:48.711Z,40.12
2022-08-17T11:50:48.703Z,47.21
2022-08-17T11:51:48.715Z,45.60
2022-08-17T11:52:48.685Z,38.03
2022-08-17T11:53:48.698Z,38.83
2022-08-17T11:54:48.669Z,44.31
2022-08-17T11:55:48.724Z,37.71
2022-08-17T11:56:48.718Z,40.61
2022-08-17T11:57:48.702Z,43.02
2022-08-17T11:58:49.647Z,44.15
2022-08-17T11:59:48.643Z,49.63
2022-08-17T12:00:48.664Z,36.74
2022-08-17T12:01:48.674Z,46.25
2022-08-17T12:02:48.965Z,39.16
2022-08-17T12:03:55.204Z,43.02
2022-08-17T12:04:49.639Z,39.16
2022-08-17T12:05:48.589Z,37.71
2022-08-17T12:06:48.608Z,42.54
2022-08-17T12:07:48.746Z,44.31
2022-08-17T12:08:48.561Z,41.09
2022-08-17T12:09:49.557Z,44.63
2022-08-17T12:10:48.556Z,42.70
2022-08-17T12:11:55.687Z,46.41
2022-08-17T12:12:49.543Z,39.16
2022-08-17T12:13:48.524Z,41.57
2022-08-17T12:15:50.530Z,43.02
2022-08-17T12:16:48.531Z,39.80
2022-08-17T12:17:48.502Z,44.63
2022-08-17T12:18:48.503Z,42.70
2022-08-17T12:19:48.491Z,41.41
2022-08-17T12:20:50.957Z,42.54
2022-08-17T12:21:48.489Z,42.54
2022-08-17T12:22:48.504Z,41.73
2022-08-17T12:23:48.453Z,38.83
2022-08-17T12:24:48.438Z,43.67
2022-08-17T12:25:48.450Z,46.25
2022-08-17T12:26:48.458Z,45.12
2022-08-17T12:28:06.030Z,37.22
2022-08-17T12:28:49.408Z,43.67
2022-08-17T12:29:48.418Z,43.51
2022-08-17T12:30:48.400Z,41.41
2022-08-17T12:31:48.431Z,44.96
2022-08-17T12:32:48.384Z,45.12
2022-08-17T12:33:48.382Z,44.31
2022-08-17T12:34:48.367Z,37.54
2022-08-17T12:35:48.366Z,45.12
2022-08-17T12:36:48.384Z,36.42
2022-08-17T12:37:48.349Z,40.93
2022-08-17T12:38:48.339Z,45.12
2022-08-17T12:39:48.356Z,41.25
2022-08-17T12:40:48.326Z,39.80
2022-08-17T12:41:48.375Z,48.82
2022-08-17T12:42:48.308Z,42.54
2022-08-17T12:43:48.312Z,45.28
2022-08-17T12:44:50.302Z,47.21
2022-08-17T12:45:48.287Z,42.86
2022-08-17T12:46:48.274Z,44.47
2022-08-17T12:47:48.299Z,46.08
2022-08-17T12:48:59.115Z,43.02
2022-08-17T12:49:49.252Z,45.76
2022-08-17T12:50:48.249Z,44.15
2022-08-17T12:51:48.237Z,42.86
2022-08-17T12:52:48.262Z,46.25
2022-08-17T12:53:48.222Z,48.50